Aérodrome :
LOGIN :

S'inscrire | Disclaimer

   EN    FR    IT 

 










Légende :    VFR   VFR Marginal   IFR   IFR Intensif   IFR Très Intensif
Visi : 
Plafond : 
>= 8 km
>= 3000ft
5 à 8 km
1000 à 3000 ft
1500m à 5 km
500 à 1000 ft
800 à 1500m
200 à 500 ft
< 800m
< 200 ft
Symboles :   Orages  Brouillard  Fortes neiges  Fortes précipitations  Vent > 20 kt
SIGMETs :   Divers  Orages  Givrage  Turbulence  Onde Orograph.  Cendres Volcan.






- Altitude de l'aérodrome : 74 ft
- Code IATA : LRH


LFBH - La Rochelle Ile de Ré

DERNIER METAR :
  • 212330Z AUTO 02009KT CAVOK 06/02 Q1026 NOSIG

METARs EXPIRÉS :
  • 212300Z AUTO 02008KT CAVOK 06/02 Q1026 NOSIG
  • 212230Z AUTO 02008KT CAVOK 06/02 Q1025 NOSIG
  • 212200Z AUTO 02008KT CAVOK 07/02 Q1025 NOSIG
  • 212130Z AUTO 02008KT CAVOK 07/02 Q1025 NOSIG
  • 212100Z AUTO 02008KT CAVOK 07/02 Q1025 NOSIG
  • 212030Z AUTO 02008KT CAVOK 08/02 Q1025 NOSIG
  • 212000Z AUTO 02008KT CAVOK 09/02 Q1024 NOSIG
  • 211930Z AUTO 02008KT CAVOK 09/02 Q1024 NOSIG

TAF TAF LFBH
Valide du 21 à 18h jusqu'au 22 à 18h UTC


211700Z 2118/2218 04016KT CAVOK
ATIS : +33 5 46 00 13 92



MET'MAP, la Météo Aéronautique d'un coup d'oeil ! - Copyright ORBIFLY Décembre 2007 - Disclaimer

ORBIFLY MET'MAP TEAM :

Programmation & Développement : Alexandra Zaïnal
Sur une idée originale de : Baudouin d'Aumeries
Soutien technique & logistique : Manuel Goepfert
Assistance : Marc-Olivier Méhu




SOURCES & CREDITS :

   NOAA